Flight Track Log - Related Links

Times and Time Zones

All times are in EDT time to prevent confusion due to time zone crossing. See the AWE1262 flight status page for this flight to view local times or setup timezone preferences in your user account.


Time Position Orientation Groundspeed Altitude Reporting Facility
EDT Latitude Longitude Course Direction KTS MPH feet Rate Location/Type
Sun 05:23:03 PM 44.8508 -93.2247 125° Southeast 149 171 2,200  Level FAA TRACON SMA TRACON (SMA)
Sun 05:23:23 PM 44.8433 -93.2036 117° Southeast 154 177 2,700 1,200 Climbing FAA TRACON SMA TRACON (SMA)
Sun 05:23:43 PM 44.8369 -93.1831 114° Southeast 176 203 3,000 1,385 Climbing FAA TRACON SMA TRACON (SMA)
Sun 05:24:02 PM 44.8303 -93.1603 112° Southeast 198 228 3,600 1,846 Climbing FAA TRACON SMA TRACON (SMA)
Sun 05:24:22 PM 44.8219 -93.1294 111° Southeast 218 251 4,200 1,500 Climbing FAA TRACON SMA TRACON (SMA)
Sun 05:24:42 PM 44.8133 -93.1003 113° Southeast 249 287 4,600 1,800 Climbing FAA TRACON SMA TRACON (SMA)
Sun 05:25:00 PM 44.7640 -92.5846 113° Southeast  Level Estimated
Sun 05:25:02 PM 44.8047 -93.0689 111° Southeast 273 314 5,400  Level FAA TRACON SMA TRACON (SMA)
Sun 05:25:23 PM 44.7933 -93.0286 112° Southeast 287 330 6,600 3,143 Climbing FAA TRACON SMA TRACON (SMA)
Sun 05:25:44 PM 44.7842 -92.9958 111° Southeast 293 337 7,600 3,300 Climbing FAA TRACON SMA TRACON (SMA)
Sun 05:26:00 PM 44.7339 -92.4257 109° East  Level Estimated
Sun 05:26:03 PM 44.7719 -92.9542 112° Southeast 298 343 8,800  Level FAA TRACON SMA TRACON (SMA)
Sun 05:26:23 PM 44.7628 -92.9197 111° Southeast 303 349 9,700 2,850 Climbing FAA TRACON SMA TRACON (SMA)
Sun 05:26:43 PM 44.7533 -92.8861 112° Southeast 304 350 10,700 1,950 Climbing FAA TRACON SMA TRACON (SMA)
Sun 05:27:00 PM 44.7036 -92.2670 117° Southeast  Level Estimated
Sun 05:27:03 PM 44.7408 -92.8408 111° Southeast 318 366 11,000  Level FAA TRACON SMA TRACON (SMA)
Sun 05:27:23 PM 44.7297 -92.8022 112° Southeast 339 390 11,500 1,950 Climbing FAA TRACON SMA TRACON (SMA)
Sun 05:27:43 PM 44.7189 -92.7628 111° Southeast 350 403 12,300 2,372 Climbing FAA TRACON SMA TRACON (SMA)
Sun 05:28:00 PM 44.6731 -92.1085 125° Southeast  Level Estimated
Sun 05:28:06 PM 44.7047 -92.7128 112° Southeast 356 410 13,200  Level FAA TRACON SMA TRACON (SMA)
Sun 05:28:25 PM 44.6933 -92.6719 111° Southeast 363 418 13,900 2,333 Climbing FAA TRACON SMA TRACON (SMA)
Sun 05:28:42 PM 44.6817 -92.6308 112° Southeast 367 422 14,600 2,270 Climbing FAA TRACON SMA TRACON (SMA)
Sun 05:29:02 PM 44.6700 -92.5889 111° Southeast 373 429 15,300 2,400 Climbing FAA TRACON SMA TRACON (SMA)
Sun 05:29:22 PM 44.6553 -92.5356 111° Southeast 380 437 16,200 2,341 Climbing FAA TRACON SMA TRACON (SMA)
Sun 05:29:43 PM 44.6425 -92.4931 113° Southeast 383 441 16,900 1,950 Climbing FAA TRACON SMA TRACON (SMA)
Sun 05:30:02 PM 44.6300 -92.4494 112° Southeast 387 445 17,500 2,100 Climbing FAA TRACON SMA TRACON (SMA)
Sun 05:30:23 PM 44.6150 -92.3942 111° Southeast 394 453 18,300 2,341 Climbing FAA TRACON SMA TRACON (SMA)
Sun 05:30:43 PM 44.6028 -92.3500 111° Southeast 393 452 19,100 2,250 Climbing FAA TRACON SMA TRACON (SMA)
Sun 05:31:03 PM 44.5900 -92.3067 112° Southeast 392 451 19,800 1,950 Climbing FAA TRACON SMA TRACON (SMA)
Sun 05:31:23 PM 44.5742 -92.2511 112° Southeast 397 457 20,400 1,650 Climbing FAA TRACON SMA TRACON (SMA)
Sun 05:31:43 PM 44.5600 -92.2072 114° Southeast 401 461 20,900 1,500 Climbing FAA TRACON SMA TRACON (SMA)
Sun 05:32:03 PM 44.5422 -92.1650 121° Southeast 405 466 21,400 1,650 Climbing FAA TRACON SMA TRACON (SMA)
Sun 05:32:23 PM 44.5169 -92.1156 126° Southeast 406 467 22,000 1,800 Climbing FAA TRACON SMA TRACON (SMA)
Sun 05:32:43 PM 44.4958 -92.0761 127° Southeast 411 473 22,600 1,846 Climbing FAA TRACON SMA TRACON (SMA)
Sun 05:33:02 PM 44.4767 -92.0342 123° Southeast 414 476 23,200 1,846 Climbing FAA TRACON SMA TRACON (SMA)
Sun 05:33:22 PM 44.4494 -91.9844 127° Southeast 419 482 23,800 1,487 Climbing FAA TRACON SMA TRACON (SMA)
Sun 05:34:59 PM 44.3403 -91.7683 125° Southeast 434 499 26,100 1,329 Climbing Minneapolis Center
Sun 05:36:00 PM 44.2889 -91.6100 114° Southeast 445 512 27,300 1,171 Climbing Minneapolis Center
Sun 05:37:02 PM 44.2358 -91.4500 115° Southeast 453 521 28,500 1,463 Climbing Minneapolis Center
Sun 05:38:03 PM 44.1797 -91.2789 115° Southeast 459 528 30,300 1,463 Climbing Minneapolis Center
Sun 05:39:05 PM 44.1267 -91.1219 115° Southeast 454 522 31,500 1,210 Climbing Minneapolis Center
Sun 05:40:07 PM 44.0731 -90.9656 115° Southeast 451 519 32,800 1,073 Climbing Minneapolis Center
Sun 05:41:08 PM 44.0197 -90.8089 115° Southeast 451 519 33,700 1,122 Climbing Minneapolis Center
Sun 05:42:10 PM 43.9675 -90.6575 116° Southeast 441 507 35,100 1,024 Climbing Minneapolis Center
Sun 05:43:11 PM 43.9142 -90.5008 115° Southeast 436 502 35,800 488 Climbing Minneapolis Center
Sun 05:44:13 PM 43.8750 -90.3375 108° East 444 511 36,100 585 Climbing Minneapolis Center
Sun 05:45:14 PM 43.8361 -90.1442 106° East 447 514 37,000 439 Climbing Minneapolis Center
Sun 05:46:16 PM 43.8025 -89.9767 105° East 451 519 37,000  Level Minneapolis Center
Sun 05:47:17 PM 43.7675 -89.8050 106° East 461 531 37,000  Level Minneapolis Center
Sun 05:48:19 PM 43.7322 -89.6322 106° East 466 536 37,000  Level Minneapolis Center
Sun 05:49:20 PM 43.6961 -89.4589 106° East 468 539 37,000  Level Minneapolis Center
Sun 05:50:21 PM 43.6661 -89.3142 106° East 468 539 37,000  Level Minneapolis Center
Sun 05:51:20 PM 43.6228 -89.1131 107° East 471 542 37,000  Level Chicago Center
Sun 05:52:21 PM 43.5856 -88.9411 107° East 470 541 37,000  Level Chicago Center
Sun 05:53:23 PM 43.5483 -88.7681 106° East 470 541 37,000  Level Chicago Center
Sun 05:54:25 PM 43.5086 -88.5842 107° East 469 540 37,000  Level Chicago Center
Sun 05:55:27 PM 43.4736 -88.4253 107° East 470 541 37,000  Level Chicago Center
Sun 05:56:29 PM 43.4336 -88.2392 106° East 468 539 37,000  Level Chicago Center
Sun 05:57:31 PM 43.3886 -88.0375 107° East 471 542 37,000  Level Chicago Center
Sun 05:58:33 PM 43.3497 -87.8647 107° East 474 545 37,000  Level Chicago Center
Sun 05:59:35 PM 43.3106 -87.6908 107° East 475 547 37,000  Level Chicago Center
Sun 06:00:37 PM 43.2714 -87.5186 107° East 474 545 37,000  Level Chicago Center
Sun 06:01:39 PM 43.2356 -87.3600 107° East 471 542 37,000  Level Chicago Center
Sun 06:02:41 PM 43.1872 -87.1561 108° East 470 541 37,000  Level Chicago Center
Sun 06:03:43 PM 43.1478 -86.9867 108° East 468 539 37,000  Level Chicago Center
Sun 06:04:44 PM 43.1086 -86.8167 107° East 470 541 37,000  Level Chicago Center
Sun 06:05:46 PM 43.0683 -86.6483 108° East 468 539 37,000  Level Chicago Center
Sun 06:06:48 PM 43.0281 -86.4806 108° East 468 539 37,000  Level Chicago Center
Sun 06:07:50 PM 42.9875 -86.3133 108° East 467 537 37,000  Level Chicago Center
Sun 06:08:52 PM 42.9392 -86.1158 108° East 467 537 37,000  Level Chicago Center
Sun 06:09:54 PM 42.8994 -85.9533 108° East 466 536 37,000  Level Chicago Center
Sun 06:10:56 PM 42.8592 -85.7883 108° East 467 537 37,000  Level Chicago Center
Sun 06:11:58 PM 42.8183 -85.6214 108° East 468 539 37,000  Level Chicago Center
Sun 06:13:00 PM 42.7631 -85.4236 111° Southeast 469 540 37,000  Level Chicago Center
Sun 06:14:02 PM 42.7064 -85.2642 116° Southeast 470 541 37,000  Level Chicago Center
Sun 06:15:04 PM 42.6494 -85.1039 116° Southeast 471 542 37,000  Level Chicago Center
Sun 06:16:06 PM 42.5925 -84.9447 116° Southeast 469 540 37,000  Level Chicago Center
Sun 06:17:08 PM 42.5358 -84.7867 116° Southeast 466 536 37,000  Level Chicago Center
Sun 06:18:10 PM 42.4794 -84.6281 116° Southeast 468 539 37,000  Level Chicago Center
Sun 06:18:52 PM 42.4272 -84.4908 117° Southeast 467 537 37,000  Level Cleveland Center
Sun 06:19:52 PM 42.3697 -84.3353 117° Southeast 467 537 37,000  Level Cleveland Center
Sun 06:20:52 PM 42.3125 -84.1747 116° Southeast 467 537 37,000  Level Cleveland Center
Sun 06:21:52 PM 42.2544 -84.0200 117° Southeast 467 537 37,000  Level Cleveland Center
Sun 06:22:52 PM 42.1964 -83.8653 117° Southeast 467 537 37,000  Level Cleveland Center
Sun 06:24:52 PM 42.0800 -83.5514 116° Southeast 467 537 37,000  Level Cleveland Center
Sun 06:25:52 PM 42.0169 -83.4033 120° Southeast 467 537 37,000  Level Cleveland Center
Sun 06:26:52 PM 41.9472 -83.2661 124° Southeast 452 520 37,000  Level Cleveland Center
Sun 06:27:52 PM 41.8714 -83.1264 126° Southeast 453 521 37,000  Level Cleveland Center
Sun 06:28:52 PM 41.7992 -82.9869 125° Southeast 453 521 37,000  Level Cleveland Center
Sun 06:29:52 PM 41.7269 -82.8506 125° Southeast 453 521 37,000  Level Cleveland Center
Sun 06:30:52 PM 41.6736 -82.6958 115° Southeast 458 527 37,000  Level Cleveland Center
Sun 06:31:52 PM 41.6283 -82.5528 113° Southeast 458 527 37,000  Level Cleveland Center
Sun 06:32:52 PM 41.5747 -82.3928 114° Southeast 464 534 37,000  Level Cleveland Center
Sun 06:33:52 PM 41.5228 -82.2361 114° Southeast 464 534 37,000  Level Cleveland Center
Sun 06:34:52 PM 41.4708 -82.0797 114° Southeast 459 528 37,000  Level Cleveland Center
Sun 06:35:52 PM 41.4186 -81.9206 114° Southeast 459 528 37,000  Level Cleveland Center
Sun 06:36:52 PM 41.3600 -81.7450 114° Southeast 459 528 37,000  Level Cleveland Center
Sun 06:37:52 PM 41.3156 -81.6061 113° Southeast 460 529 37,000  Level Cleveland Center
Sun 06:38:52 PM 41.2606 -81.4506 115° Southeast 460 529 37,000  Level Cleveland Center
Sun 06:39:52 PM 41.2031 -81.2925 116° Southeast 466 536 37,000  Level Cleveland Center
Sun 06:40:52 PM 41.1497 -81.1372 114° Southeast 461 531 37,000  Level Cleveland Center
Sun 06:41:52 PM 41.0983 -80.9772 113° Southeast 471 542 37,000  Level Cleveland Center
Sun 06:42:52 PM 41.0406 -80.8200 116° Southeast 465 535 37,000  Level Cleveland Center
Sun 06:43:52 PM 40.9864 -80.6600 114° Southeast 465 535 37,000  Level Cleveland Center
Sun 06:44:52 PM 40.9281 -80.5033 116° Southeast 465 535 37,000  Level Cleveland Center
Sun 06:45:52 PM 40.8736 -80.3469 115° Southeast 465 535 37,000  Level Cleveland Center
Sun 06:46:52 PM 40.8150 -80.1936 117° Southeast 465 535 37,000  Level Cleveland Center
Sun 06:47:52 PM 40.7600 -80.0347 115° Southeast 465 535 37,000  Level Cleveland Center
Sun 06:48:52 PM 40.7050 -79.8792 115° Southeast 465 535 37,000  Level Cleveland Center
Sun 06:49:52 PM 40.6478 -79.7267 116° Southeast 460 529 37,000  Level Cleveland Center
Sun 06:50:52 PM 40.5922 -79.5686 115° Southeast 460 529 37,000  Level Cleveland Center
Sun 06:51:52 PM 40.5364 -79.4167 116° Southeast 460 529 37,000  Level Cleveland Center
Sun 06:52:52 PM 40.4764 -79.2619 117° Southeast 466 536 37,000  Level Cleveland Center
Sun 06:53:52 PM 40.4350 -79.1019 109° East 466 536 37,000  Level Cleveland Center
Sun 06:54:52 PM 40.4261 -78.9247 94° East 466 536 37,000 -650 Level Cleveland Center
Sun 06:55:52 PM 40.4153 -78.7506 95° East 476 548 35,700 -2,400 Descending Cleveland Center
Sun 06:56:52 PM 40.4039 -78.5681 95° East 486 559 32,200 -3,250 Descending Cleveland Center
Sun 06:57:52 PM 40.3939 -78.3722 94° East 486 559 29,200 -2,727 Descending Cleveland Center
Sun 06:59:04 PM 40.3800 -78.1664 95° East 484 557 26,200 -1,909 Descending New York Center
Sun 07:00:04 PM 40.3708 -78.0128 94° East 454 522 25,000 -600 Descending New York Center
Sun 07:01:04 PM 40.3586 -77.8697 96° East 419 482 25,000 -450 Level New York Center
Sun 07:02:04 PM 40.3503 -77.7300 94° East 398 458 24,100 -1,289 Descending New York Center
Sun 07:03:05 PM 40.3564 -77.5917 87° East 384 442 22,400 -1,537 Descending New York Center
Sun 07:04:05 PM 40.4044 -77.4764 61° Northeast 350 403 21,000 -1,650 Descending New York Center
Sun 07:05:05 PM 40.3575 -77.3847 124° Southeast 296 341 19,100 -1,525 Descending New York Center
Sun 07:06:03 PM 40.2947 -77.3161 140° Southeast 296 341 18,000 -1,008 Descending New York Center
Sun 07:07:04 PM 40.2756 -77.2108 103° East 308 354 17,100 -443 Descending New York Center
Sun 07:08:05 PM 40.2536 -77.0728 102° East 324 373 17,100  Level New York Center
Sun 07:09:05 PM 40.2344 -76.9650 103° East 329 379 17,100 -50 Level New York Center
Sun 07:10:06 PM 40.2139 -76.8381 102° East 329 379 17,000 -504 Descending New York Center
Sun 07:11:04 PM 40.1947 -76.7222 102° East 329 379 16,100 -1,220 Descending New York Center
Sun 07:12:04 PM 40.1753 -76.6092 103° East 323 372 14,600 -1,537 Descending New York Center
Sun 07:13:05 PM 40.1592 -76.5128 102° East 313 360 13,000 -1,279 Descending New York Center
Sun 07:14:06 PM 40.1394 -76.4050 103° East 303 349 12,000 -508 Descending New York Center
Sun 07:15:03 PM 40.1219 -76.2897 101° East 298 343 12,000  Level New York Center
Sun 07:15:43 PM 40.1150 -76.2189 97° East 299 344 12,000 -200 Level FAA TRACON SMA TRACON (SMA)
Sun 07:16:03 PM 40.1133 -76.1856 94° East 300 345 11,800 -1,050 Descending FAA TRACON SMA TRACON (SMA)
Sun 07:16:23 PM 40.1103 -76.1442 96° East 298 343 11,300 -1,350 Descending FAA TRACON SMA TRACON (SMA)
Sun 07:16:43 PM 40.1069 -76.1114 98° East 296 341 10,900 -1,050 Descending FAA TRACON SMA TRACON (SMA)
Sun 07:17:03 PM 40.1053 -76.0789 94° East 294 338 10,600 -1,050 Descending FAA TRACON SMA TRACON (SMA)
Sun 07:17:23 PM 40.1036 -76.0392 93° East 291 335 10,200 -1,200 Descending FAA TRACON SMA TRACON (SMA)
Sun 07:17:43 PM 40.1006 -76.0078 97° East 286 329 9,800 -1,200 Descending FAA TRACON SMA TRACON (SMA)
Sun 07:18:03 PM 40.0986 -75.9731 94° East 284 327 9,400 -1,350 Descending FAA TRACON SMA TRACON (SMA)
Sun 07:18:23 PM 40.0950 -75.9375 98° East 281 323 8,900 -1,500 Descending FAA TRACON SMA TRACON (SMA)
Sun 07:18:43 PM 40.0933 -75.9067 94° East 279 321 8,400 -1,200 Descending FAA TRACON SMA TRACON (SMA)
Sun 07:19:03 PM 40.0911 -75.8764 95° East 276 318 8,100 -600 Descending FAA TRACON SMA TRACON (SMA)
Sun 07:19:23 PM 40.0886 -75.8389 95° East 271 312 8,000 -300 Descending FAA TRACON SMA TRACON (SMA)
Sun 07:19:43 PM 40.0867 -75.8097 95° East 270 311 7,900 -600 Descending FAA TRACON SMA TRACON (SMA)
Sun 07:20:03 PM 40.0836 -75.7725 96° East 268 308 7,600 -900 Descending FAA TRACON SMA TRACON (SMA)
Sun 07:20:23 PM 40.0822 -75.7428 93° East 265 305 7,300 -900 Descending FAA TRACON SMA TRACON (SMA)
Sun 07:20:43 PM 40.0806 -75.7136 94° East 263 303 7,000 -450 Descending FAA TRACON SMA TRACON (SMA)
Sun 07:21:03 PM 40.0789 -75.6772 93° East 261 300 7,000  Level FAA TRACON SMA TRACON (SMA)
Sun 07:21:24 PM 40.0769 -75.6472 95° East 262 302 7,000 -439 Level FAA TRACON SMA TRACON (SMA)
Sun 07:21:44 PM 40.0761 -75.6192 92° East 261 300 6,700 -1,077 Descending FAA TRACON SMA TRACON (SMA)
Sun 07:22:03 PM 40.0753 -75.5897 92° East 260 299 6,300 -712 Descending FAA TRACON SMA TRACON (SMA)
Sun 07:22:43 PM 40.0717 -75.5256 94° East 257 296 6,000 -300 Descending FAA TRACON SMA TRACON (SMA)
Sun 07:23:03 PM 40.0700 -75.4900 93° East 257 296 6,000  Level FAA TRACON SMA TRACON (SMA)
Sun 07:23:23 PM 40.0686 -75.4611 94° East 256 295 6,000  Level FAA TRACON SMA TRACON (SMA)
Sun 07:23:43 PM 40.0597 -75.4347 114° Southeast 265 305 6,000  Level FAA TRACON SMA TRACON (SMA)
Sun 07:24:03 PM 40.0428 -75.4153 139° Southeast 271 312 6,000  Level FAA TRACON SMA TRACON (SMA)
Sun 07:24:23 PM 40.0161 -75.4044 163° South 261 300 6,000  Level FAA TRACON SMA TRACON (SMA)
Sun 07:24:43 PM 39.9944 -75.3956 163° South 265 305 6,000  Level FAA TRACON SMA TRACON (SMA)
Sun 07:25:03 PM 39.9714 -75.3769 148° Southeast 247 284 6,000  Level FAA TRACON SMA TRACON (SMA)
Sun 07:25:23 PM 39.9547 -75.3631 147° Southeast 231 266 6,000  Level FAA TRACON SMA TRACON (SMA)
Sun 07:25:43 PM 39.9367 -75.3569 165° South 210 242 6,000  Level FAA TRACON SMA TRACON (SMA)
Sun 07:26:03 PM 39.9192 -75.3736 216° Southwest 207 238 6,000  Level FAA TRACON SMA TRACON (SMA)
Sun 07:26:23 PM 39.9142 -75.3953 253° West 206 237 6,000  Level FAA TRACON SMA TRACON (SMA)
Sun 07:26:43 PM 39.9100 -75.4172 256° West 209 241 6,000  Level FAA TRACON SMA TRACON (SMA)
Sun 07:27:03 PM 39.9056 -75.4458 259° West 208 239 6,000  Level FAA TRACON SMA TRACON (SMA)
Sun 07:27:23 PM 39.9017 -75.4689 258° West 208 239 6,000  Level FAA TRACON SMA TRACON (SMA)
Sun 07:27:43 PM 39.8978 -75.4914 257° West 208 239 6,000 -300 Level FAA TRACON SMA TRACON (SMA)
Sun 07:28:03 PM 39.8928 -75.5181 256° West 200 230 5,800 -750 Descending FAA TRACON SMA TRACON (SMA)
Sun 07:28:23 PM 39.8889 -75.5375 255° West 185 213 5,500 -1,050 Descending FAA TRACON SMA TRACON (SMA)
Sun 07:28:43 PM 39.8853 -75.5561 256° West 184 212 5,100 -750 Descending FAA TRACON SMA TRACON (SMA)
Sun 07:29:03 PM 39.8811 -75.5828 258° West 186 214 5,000 -150 Descending FAA TRACON SMA TRACON (SMA)
Sun 07:29:23 PM 39.8778 -75.6031 258° West 186 214 5,000  Level FAA TRACON SMA TRACON (SMA)
Sun 07:29:44 PM 39.8742 -75.6231 257° West 186 214 5,000  Level FAA TRACON SMA TRACON (SMA)
Sun 07:30:03 PM 39.8692 -75.6486 256° West 185 213 5,000  Level FAA TRACON SMA TRACON (SMA)
Sun 07:30:24 PM 39.8667 -75.6678 260° West 183 211 5,000  Level FAA TRACON SMA TRACON (SMA)
Sun 07:30:44 PM 39.8608 -75.6867 248° West 194 223 5,000 -600 Level FAA TRACON SMA TRACON (SMA)
Sun 07:31:04 PM 39.8433 -75.6933 196° South 167 192 4,600 -1,050 Descending FAA TRACON SMA TRACON (SMA)
Sun 07:31:24 PM 39.8283 -75.6900 170° South 194 223 4,300 -900 Descending FAA TRACON SMA TRACON (SMA)
Sun 07:31:44 PM 39.8103 -75.6856 169° South 170 196 4,000 -450 Descending FAA TRACON SMA TRACON (SMA)
Sun 07:32:04 PM 39.7961 -75.6811 166° South 176 203 4,000  Level FAA TRACON SMA TRACON (SMA)
Sun 07:32:24 PM 39.7869 -75.6661 128° Southeast 172 198 4,000  Level FAA TRACON SMA TRACON (SMA)
Sun 07:32:44 PM 39.7861 -75.6478 93° East 170 196 4,000  Level FAA TRACON SMA TRACON (SMA)
Sun 07:33:04 PM 39.7908 -75.6256 75° East 165 190 4,000  Level FAA TRACON SMA TRACON (SMA)
Sun 07:33:24 PM 39.7936 -75.6075 79° East 167 192 4,000  Level FAA TRACON SMA TRACON (SMA)
Sun 07:33:44 PM 39.7978 -75.5889 74° East 168 193 4,000  Level FAA TRACON SMA TRACON (SMA)
Sun 07:34:04 PM 39.8019 -75.5658 77° East 167 192 4,000  Level FAA TRACON SMA TRACON (SMA)
Sun 07:34:24 PM 39.8056 -75.5489 74° East 166 191 4,000  Level FAA TRACON SMA TRACON (SMA)
Sun 07:34:45 PM 39.8092 -75.5308 75° East 166 191 4,000 -293 Level FAA TRACON SMA TRACON (SMA)
Sun 07:35:05 PM 39.8139 -75.5086 75° East 164 189 3,800 -769 Descending FAA TRACON SMA TRACON (SMA)
Sun 07:35:24 PM 39.8178 -75.4906 74° East 165 190 3,500 -923 Descending FAA TRACON SMA TRACON (SMA)
Sun 07:35:44 PM 39.8214 -75.4683 78° East 165 190 3,200 -900 Descending FAA TRACON SMA TRACON (SMA)
Sun 07:36:04 PM 39.8256 -75.4508 73° East 165 190 2,900 -900 Descending FAA TRACON SMA TRACON (SMA)
Sun 07:36:24 PM 39.8292 -75.4328 75° East 166 191 2,600 -1,050 Descending FAA TRACON SMA TRACON (SMA)
Sun 07:36:44 PM 39.8336 -75.4106 75° East 166 191 2,200 -923 Descending FAA TRACON SMA TRACON (SMA)
Sun 07:37:03 PM 39.8369 -75.3939 75° East 166 191 2,000 -750 Descending FAA TRACON SMA TRACON (SMA)
Sun 07:37:24 PM 39.8408 -75.3753 75° East 163 188 1,700 -1,024 Descending FAA TRACON SMA TRACON (SMA)
Sun 07:37:44 PM 39.8450 -75.3550 75° East 157 181 1,300 -800 Descending FAA TRACON SMA TRACON (SMA)
Sun 07:38:24 PM 39.8503 -75.3278 76° East 123 142 900 -600 Descending FAA TRACON SMA TRACON (SMA)
Sun 07:38:44 PM 39.8531 -75.3144 75° East 125 144 700 -600 Descending FAA TRACON SMA TRACON (SMA)

Login

Don't have an account? Register now (free) for customized features, flight alerts, and more!